Thursday, January 18, 2018, 10:58 PM EST
Back to Local

K1P1, Plymouth, Plymouth Municipal Airport

Location: Plymouth, NH, United States Lat: 43.779
Local Time: 10:58 PM EST ( 3:58 GMT) Lon: -71.754
Time Zone: US/Eastern Elev: 505 ft

Show me the last for .
Show Coded

Time T Td Feel RH Dir Speed Gust Alt SLP Vis Weather Sky Remarks
2018-01-18 22:27 22 18 16 81 340° 5 - 29.92 - 10 CLR None
2018-01-18 22:07 23 18 16 80 310° 6 - 29.92 - 10 CLR None
2018-01-18 21:55 21 17 12 83 290° 7 - 29.91 - 10 SCT040 None
2018-01-18 21:27 22 17 - 79 - Calm - 29.91 - 10 BKN040 None
2018-01-18 21:06 23 17 18 79 300° 3 - 29.91 - 10 SCT038 None
2018-01-18 20:55 23 17 18 78 280° 3 - 29.89 - 10 SCT038 None
2018-01-18 20:28 24 17 18 74 290° 5 - 29.89 - 10 CLR None
2018-01-18 20:06 24 17 19 74 310° 3 - 29.89 - 10 CLR None
2018-01-18 19:55 25 17 20 73 290° 3 - 29.89 - 10 CLR None
2018-01-18 19:27 25 17 20 73 290° 3 - 29.89 - 10 SCT033 SCT044 None
2018-01-18 19:07 25 17 21 71 300° 3 - 29.89 - 10 SCT033 SCT044 None
2018-01-18 18:55 25 17 19 72 320° 5 - 29.89 - 10 SCT033 6-hr Min Temp (7pm): 24.6°F
6-hr Max Temp (7pm): 29.3°F
2018-01-18 18:27 25 17 17 71 300° 7 - 29.88 - 10 SCT033 None
2018-01-18 18:07 25 17 19 70 290° 5 - 29.87 - 10 SCT033 None
2018-01-18 17:55 26 17 19 69 290° 6 - 29.87 - 10 SCT035 None
2018-01-18 17:27 26 17 18 68 300° 7 - 29.87 - 10 BKN035 None
2018-01-18 17:06 26 17 18 67 300° 7 - 29.86 - 10 BKN035 None
2018-01-18 16:55 26 16 17 65 300° 9 - 29.86 - 10 BKN035 None
2018-01-18 16:27 27 16 17 64 290° 9 - 29.86 - 10 SCT035 None
2018-01-18 16:07 27 16 14 63 300° 9 18 29.85 - 10 BKN035 None
2018-01-18 15:55 28 16 15 60 320° 10 17 29.85 - 10 OVC035 None
2018-01-18 15:27 28 16 15 60 300° 8 16 29.85 - 10 OVC037 None
2018-01-18 15:06 28 16 14 59 320° 10 22 29.85 - 10 BKN037 None
2018-01-18 14:55 28 16 17 58 330° 14 - 29.85 - 10 SCT035 None
2018-01-18 14:27 28 16 15 59 310° 8 20 29.85 - 10 CLR None
2018-01-18 14:07 29 15 17 55 330° 14 18 29.85 - 3 HZ SCT036 None
2018-01-18 13:55 29 16 18 56 290° 12 16 29.86 - 10 SCT036 None
2018-01-18 13:26 29 16 22 57 280° 7 - 29.86 - 10 SCT036 None
2018-01-18 13:06 28 16 17 58 270° 9 16 29.86 - 3 -SN CLR None
2018-01-18 12:55 28 15 16 58 270° 10 17 29.87 - 7 -SN SCT032 6-hr Min Temp (1pm): 14.7°F
6-hr Max Temp (1pm): 28.2°F
2018-01-18 12:27 28 15 15 59 270° 9 17 29.88 - 7 -SN CLR None
2018-01-18 12:06 28 15 15 59 260° 12 17 29.89 - 10 CLR None
2018-01-18 11:55 27 15 18 60 270° 9 - 29.90 - 7 -SN CLR None
2018-01-18 11:26 26 15 18 61 280° 8 - 29.91 - 5 HZ CLR None
2018-01-18 11:06 26 15 17 63 280° 8 - 29.93 - 10 CLR None
2018-01-18 10:55 24 14 16 63 280° 7 - 29.94 - 7 -SN CLR None
2018-01-18 10:27 24 14 14 65 290° 9 - 29.94 - 2 -SN CLR Variable visibility
2018-01-18 10:07 22 13 9 67 290° 9 16 29.94 - 5 HZ CLR None
2018-01-18 09:55 21 13 12 70 290° 8 - 29.94 - 7 CLR None
2018-01-18 09:27 20 13 10 73 290° 8 - 29.94 - 10 CLR None
2018-01-18 09:07 19 12 8 73 290° 9 - 29.94 - 10 CLR None
2018-01-18 08:55 18 12 9 76 290° 7 - 29.95 - 10 CLR None
2018-01-18 08:27 18 12 8 77 290° 8 - 29.94 - 10 CLR None
2018-01-18 08:07 17 12 6 79 280° 9 - 29.94 - 10 CLR None
2018-01-18 07:55 16 11 3 81 290° 12 - 29.94 - 10 CLR None
2018-01-18 07:27 15 11 4 82 290° 8 - 29.94 - 10 CLR None
2018-01-18 07:07 16 11 4 81 290° 9 - 29.94 - 10 CLR None
2018-01-18 06:55 15 11 6 83 290° 6 - 29.94 - 10 CLR 24-hr Precip Total (7am): 0.02"
6-hr Min Temp (7am): 12.2°F
6-hr Max Temp (7am): 24.8°F
2018-01-18 06:28 16 11 6 80 290° 7 - 29.94 - 10 CLR None
2018-01-18 06:07 16 11 8 80 270° 6 - 29.95 - 10 CLR None
2018-01-18 05:55 17 12 6 78 270° 9 - 29.95 - 10 CLR None
2018-01-18 05:27 18 12 10 75 270° 6 - 29.95 - 10 CLR None
2018-01-18 05:06 19 13 8 77 260° 8 - 29.95 - 10 CLR None
2018-01-18 04:55 19 13 4 75 280° 13 18 29.94 - 10 CLR None
2018-01-18 04:27 19 13 8 77 260° 9 - 29.94 - 10 CLR None
2018-01-18 04:07 17 14 8 87 260° 7 - 29.95 - 10 CLR None
2018-01-18 03:55 13 12 7 94 260° 3 - 29.96 - 10 CLR None
2018-01-18 03:26 15 13 - 93 - Calm - 29.96 - 10 CLR None
2018-01-18 03:07 16 13 10 89 270° 3 - 29.97 - 10 CLR None
2018-01-18 02:55 18 14 - 84 - Calm - 29.97 - 10 CLR None
2018-01-18 02:27 20 15 - 80 - Calm - 29.98 - 10 CLR None
2018-01-18 02:07 21 15 16 76 310° 3 - 29.99 - 10 CLR None
2018-01-18 01:55 21 16 16 79 290° 3 - 29.99 - 10 CLR None
2018-01-18 01:29 22 17 - 80 - Calm - 30.00 - 10 BKN024 None
2018-01-18 01:06 24 19 18 80 260° 5 - 30.01 - 10 OVC024 None
2018-01-18 00:55 25 20 - 81 - Calm - 30.01 - 10 OVC022 6-hr Min Temp (1am): 24.8°F
6-hr Max Temp (1am): 28.4°F
2018-01-18 00:27 26 21 21 82 250° 3 - 30.01 - 10 OVC022 None
2018-01-18 00:07 26 22 22 85 240° 3 - 30.02 - 10 OVC022 None
2018-01-17 23:55 26 22 - 84 - Calm - 30.03 - 10 BKN022 OVC028 None
2018-01-17 23:27 27 22 - 84 - Calm - 30.03 - 10 BKN020 OVC028 None
2018-01-17 23:07 27 22 23 81 250° 3 - 30.04 - 10 OVC020 None

Support USWX by starting your Amazon purchase here.